• Join FlightAware (Why Join?)
  • Login
  • US Flag 
01:13PM EST


 

Airport Tracker/Info


-or-


 

Live Flight TrackerFlight Track Log ✈ N700QA ✈ 23-Jul-2013 ✈ KSJC - KLAX

Flight Track Log - Related Links

Times and Time Zones

All times are in EDT time to prevent confusion due to time zone crossing. See the N700QA flight status page for this flight to view local times or setup timezone preferences in your user account.

Time Position Orientation Groundspeed Altitude Reporting Facility
EDT Latitude Longitude Course Direction KTS MPH feet Rate Location/Type
06:06PM 37.3833 -121.9667 360° North 173 199 2,200  Level Northern Cal TRACON
06:07PM 37.4333 -121.9667 360° North 222 255 4,600 1,380 Climbing Northern Cal TRACON
06:08PM 37.4000 -121.8833 117° Southeast 262 302 5,100 600 Climbing Northern Cal TRACON
06:09PM 37.3500 -121.8167 133° Southeast 276 318 5,900 1,380 Climbing Northern Cal TRACON
06:10PM 37.3089 -121.7556 130° Southeast 268 308 7,900 1,500 Climbing Oakland Center
06:11PM 37.2983 -121.6550 97° East 290 334 8,800 1,320 Climbing Oakland Center
06:12PM 37.2556 -121.5667 121° Southeast 298 343 10,700 2,280 Climbing Oakland Center
06:13PM 37.1775 -121.4850 140° Southeast 305 351 13,500 2,580 Climbing Oakland Center
06:14PM 37.1097 -121.4217 143° Southeast 307 353 16,000 2,040 Climbing Oakland Center
06:15PM 37.0408 -121.3492 140° Southeast 309 356 17,700 1,740 Climbing Oakland Center
06:16PM 36.9703 -121.2772 141° Southeast 324 373 19,600 1,560 Climbing Oakland Center
06:17PM 36.8967 -121.2044 142° Southeast 336 387 20,900 1,500 Climbing Oakland Center
06:18PM 36.8156 -121.1225 141° Southeast 345 397 22,700 1,500 Climbing Oakland Center
06:19PM 36.7386 -121.0492 143° Southeast 349 402 24,000 1,260 Climbing Oakland Center
06:20PM 36.6611 -120.9708 141° Southeast 357 411 25,300 1,080 Climbing Oakland Center
06:21PM 36.5825 -120.8925 141° Southeast 361 415 26,300 780 Climbing Oakland Center
06:22PM 36.5025 -120.8144 142° Southeast 366 421 27,000 360 Climbing Oakland Center
06:23PM 36.4194 -120.7306 141° Southeast 383 441 27,100  Climbing Oakland Center
06:24PM 36.3344 -120.6456 141° Southeast 391 450 27,100  Level Oakland Center
06:25PM 36.2481 -120.5617 142° Southeast 395 455 27,100  Level Oakland Center
06:26PM 36.1619 -120.4769 142° Southeast 395 455 27,100  Level Oakland Center
06:27PM 36.0758 -120.3919 141° Southeast 396 456 27,100  Level Oakland Center
06:28PM 35.9719 -120.2906 142° Southeast 394 453 27,100  Level Oakland Center
06:29PM 35.8844 -120.2067 142° Southeast 395 455 27,100  Level Oakland Center
06:30PM 35.7986 -120.1211 141° Southeast 395 455 27,100  Level Oakland Center
06:31PM 35.7119 -120.0389 142° Southeast 392 451 27,100  Level Oakland Center
06:32PM 35.6250 -119.9556 142° Southeast 392 451 27,100  Level Oakland Center
06:33PM 35.5344 -119.8789 145° Southeast 391 450 27,100  Level Oakland Center
06:34PM 35.4442 -119.8011 145° Southeast 392 451 27,100  Level Oakland Center
06:35PM 35.3550 -119.7233 145° Southeast 390 449 27,100  Level Oakland Center
06:36PM 35.3197 -119.6931 145° Southeast 390 449 27,100 -300 Level Los Angeles Center
06:37PM 35.2128 -119.6014 145° Southeast 389 448 26,700 -660 Descending Los Angeles Center
06:38PM 35.1222 -119.5261 146° Southeast 393 452 25,800 -1,020 Descending Los Angeles Center
06:39PM 35.0153 -119.4331 145° Southeast 393 452 24,600 -960 Descending Los Angeles Center
06:40PM 34.9256 -119.3547 144° Southeast 396 456 23,700 -720 Descending Los Angeles Center
06:41PM 34.8142 -119.2625 146° Southeast 402 463 23,100 -780 Descending Los Angeles Center
06:42PM 34.7231 -119.1847 145° Southeast 401 461 22,200 -1,500 Descending Los Angeles Center
06:43PM 34.6161 -119.0964 146° Southeast 414 476 20,100 -1,980 Descending Los Angeles Center
06:44PM 34.5261 -119.0178 144° Southeast 399 459 18,200 -1,800 Descending Los Angeles Center
06:45PM 34.4389 -118.9453 146° Southeast 380 437 16,500 -1,560 Descending Los Angeles Center
06:46PM 34.3719 -118.8903 146° Southeast 366 421 15,000 -1,920 Descending Los Angeles Center
06:47PM 34.2592 -118.8428 161° South 356 410 12,600 -1,560 Descending Los Angeles Center
06:49PM 34.1694 -118.8083 162° South 343 395 11,800 -960 Descending Los Angeles Center
06:50PM 34.0753 -118.7739 163° South 307 353 10,700 -840 Descending Los Angeles Center
06:51PM 34.0350 -118.6864 119° Southeast 313 360 10,100 -660 Descending Los Angeles Center
06:52PM 34.0283 -118.5889 95° East 295 339 9,400 -960 Descending Los Angeles Center
06:53PM 34.0178 -118.4847 97° East 286 329 8,200 -1,200 Descending Los Angeles Center
06:54PM 34.0128 -118.4044 94° East 279 321 7,000 -1,380 Descending Los Angeles Center
06:55PM 34.0278 -118.3158 78° East 273 314 5,400 -1,620 Descending Los Angeles Center
06:56PM 34.0389 -118.2222 82° East 247 284 3,700 -1,080 Descending Los Angeles Center
06:57PM 33.9928 -118.2083 166° South 199 229 3,200 -420 Descending Los Angeles Center
06:58PM 33.9669 -118.2567 237° Southwest 178 205 2,900 -540 Descending Los Angeles Center
06:59PM 33.9617 -118.3133 264° West 174 200 2,100 -840 Descending Los Angeles Center
07:00PM 33.9556 -118.3619 261° West 158 182 1,200 -960 Descending Los Angeles Center
07:01PM 33.9517 -118.4017 263° West 133 153 200 -1,020 Descending Los Angeles Center
07:03PM 33.9425 -118.4081 228° Southwest  Level Estimated
07:10PM 33.9425 -118.4081 228° Southwest  Level Estimated